Terminal Aerodrome Forecast
Issued by NWS Charleston, WV

Home | Current Version | Previous Version | Text Only | Print | Product List | Glossary On
Versions: 1 2 3 4 5 6 7 8 9 10 11 12 13 14 15 16 17 18 19 20 21 22 23 24 25 26 27 28 29
000
FTUS41 KRLX 141604 AAD
TAFEKN
TAF AMD
KEKN 141604Z 1416/1512 30008KT 4SM -SN OVC025
      TEMPO 1416/1417 2SM -SHSN BKN015
     FM141700 31009KT P6SM BKN025
     FM150000 30003KT P6SM BKN035=

USA.gov is the U.S. government's official web portal to all federal, state and local government web resources and services.